createdAt,value
2023-05-05T00:01:25.240Z,101410.81
2023-05-05T00:03:51.806Z,101423.13
2023-05-05T00:06:18.426Z,101416.91
2023-05-05T00:08:44.876Z,101401.03
2023-05-05T00:11:11.908Z,101399.19
2023-05-05T00:13:38.792Z,101401.81
2023-05-05T00:16:05.982Z,101398.19
2023-05-05T00:18:33.748Z,101392.84
2023-05-05T00:21:00.167Z,101387.59
2023-05-05T00:23:26.631Z,101394.72
2023-05-05T00:25:53.055Z,101392.09
2023-05-05T00:28:19.573Z,101394.69
2023-05-05T00:30:46.056Z,101399.06
2023-05-05T00:33:12.583Z,101405.22
2023-05-05T00:35:38.969Z,101399.91
2023-05-05T00:38:05.382Z,101383.03
2023-05-05T00:40:31.837Z,101386.66
2023-05-05T00:42:59.809Z,101396.38
2023-05-05T00:45:26.294Z,101384.81
2023-05-05T00:47:56.948Z,101392.81
2023-05-05T00:50:29.219Z,101386.66
2023-05-05T00:53:06.498Z,101390.19
2023-05-05T00:55:34.216Z,101399.09
2023-05-05T00:58:02.878Z,101390.25
2023-05-05T01:00:30.080Z,101378.75
2023-05-05T01:02:56.758Z,101371.69
2023-05-05T01:05:25.836Z,101377.00
2023-05-05T01:08:15.436Z,101377.88
2023-05-05T01:10:51.813Z,101373.44
2023-05-05T01:13:46.079Z,101377.00
2023-05-05T01:16:22.803Z,101369.03
2023-05-05T01:19:26.306Z,101347.88
2023-05-05T01:22:07.195Z,101364.63
2023-05-05T01:24:39.790Z,101370.00
2023-05-05T01:27:21.387Z,101377.94
2023-05-05T01:30:05.441Z,101375.28
2023-05-05T01:32:35.676Z,101376.19
2023-05-05T01:35:27.315Z,101384.97
2023-05-05T01:38:08.821Z,101381.41
2023-05-05T01:40:40.857Z,101369.09
2023-05-05T01:43:09.660Z,101384.06
2023-05-05T01:45:41.514Z,101377.84
2023-05-05T01:48:09.053Z,101388.50
2023-05-05T01:50:36.760Z,101400.00
2023-05-05T01:53:04.900Z,101400.94
2023-05-05T01:55:34.537Z,101404.47
2023-05-05T01:58:02.232Z,101408.03
2023-05-05T02:00:30.637Z,101412.53
2023-05-05T02:02:59.678Z,101411.69
2023-05-05T02:05:28.087Z,101423.22
2023-05-05T02:07:59.025Z,101425.94
2023-05-05T02:10:28.048Z,101410.94
2023-05-05T02:12:56.464Z,101402.13
2023-05-05T02:15:25.007Z,101375.56
2023-05-05T02:17:52.992Z,101404.78
2023-05-05T02:20:20.566Z,101416.31
2023-05-05T02:22:47.261Z,101421.72
2023-05-05T02:25:13.870Z,101412.00
2023-05-05T02:27:43.812Z,101405.00
2023-05-05T02:30:15.889Z,101397.13
2023-05-05T02:32:54.558Z,101403.34
2023-05-05T02:35:24.368Z,101393.59
2023-05-05T02:37:53.341Z,101398.03
2023-05-05T02:40:24.355Z,101398.03
2023-05-05T02:42:54.267Z,101397.19
2023-05-05T02:45:23.073Z,101397.22
2023-05-05T02:47:49.500Z,101386.63
2023-05-05T02:50:16.071Z,101391.94
2023-05-05T02:52:43.245Z,101388.41
2023-05-05T02:55:10.175Z,101395.56
2023-05-05T02:57:53.550Z,101398.25
2023-05-05T03:00:28.966Z,101401.00
2023-05-05T03:03:02.297Z,101408.13
2023-05-05T03:05:42.866Z,101398.47
2023-05-05T03:08:13.989Z,101399.41
2023-05-05T03:10:50.322Z,101400.34
2023-05-05T03:13:20.316Z,101416.31
2023-05-05T03:15:49.573Z,101411.94
2023-05-05T03:18:18.200Z,101420.84
2023-05-05T03:20:45.269Z,101420.91
2023-05-05T03:23:13.411Z,101430.66
2023-05-05T03:25:47.756Z,101424.50
2023-05-05T03:28:16.373Z,101424.56
2023-05-05T03:30:43.034Z,101413.13
2023-05-05T03:33:12.176Z,101429.91
2023-05-05T03:35:38.698Z,101434.31
2023-05-05T03:38:05.203Z,101435.22
2023-05-05T03:40:43.136Z,101418.44
2023-05-05T03:43:11.481Z,101403.41
2023-05-05T03:45:38.625Z,101417.59
2023-05-05T03:48:07.754Z,101422.88
2023-05-05T03:50:34.293Z,101423.75
2023-05-05T03:53:00.858Z,101429.97
2023-05-05T03:55:27.456Z,101435.28
2023-05-05T03:57:56.261Z,101439.69
2023-05-05T04:00:22.723Z,101443.25
2023-05-05T04:02:51.332Z,101452.09
2023-05-05T04:05:23.977Z,101463.59
2023-05-05T04:07:51.470Z,101463.59
2023-05-05T04:10:17.995Z,101464.50
2023-05-05T04:12:44.511Z,101471.59
2023-05-05T04:15:11.161Z,101474.28
2023-05-05T04:17:37.826Z,101482.22
2023-05-05T04:20:04.705Z,101484.88
2023-05-05T04:22:31.113Z,101489.34
2023-05-05T04:24:57.733Z,101487.56
2023-05-05T04:27:28.886Z,101477.00
2023-05-05T04:29:55.833Z,101492.00
2023-05-05T04:32:22.507Z,101497.31
2023-05-05T04:34:49.024Z,101498.22
2023-05-05T04:37:15.933Z,101505.28
2023-05-05T04:39:42.410Z,101505.31
2023-05-05T04:42:09.046Z,101509.75
2023-05-05T04:44:35.739Z,101515.94
2023-05-05T04:47:02.782Z,101506.22
2023-05-05T04:49:29.831Z,101510.63
2023-05-05T04:51:56.194Z,101509.78
2023-05-05T04:54:22.804Z,101510.66
2023-05-05T04:56:49.536Z,101510.63
2023-05-05T04:59:16.132Z,101518.56
2023-05-05T05:01:45.133Z,101514.13
2023-05-05T05:04:11.590Z,101522.06
2023-05-05T05:06:38.014Z,101522.03
2023-05-05T05:09:04.554Z,101532.63
2023-05-05T05:11:30.908Z,101525.53
2023-05-05T05:13:57.468Z,101531.69
2023-05-05T05:16:25.115Z,101539.66
2023-05-05T05:18:51.598Z,101531.66
2023-05-05T05:21:18.144Z,101528.09
2023-05-05T05:23:46.680Z,101527.22
2023-05-05T05:26:13.373Z,101531.56
2023-05-05T05:28:39.944Z,101539.53
2023-05-05T05:31:06.814Z,101528.84
2023-05-05T05:33:33.195Z,101535.88
2023-05-05T05:35:59.609Z,101539.28
2023-05-05T05:38:25.984Z,101541.72
2023-05-05T05:40:54.395Z,101545.91
2023-05-05T05:43:21.175Z,101528.72
2023-05-05T05:45:47.778Z,101547.78
2023-05-05T05:48:14.245Z,101549.09
2023-05-05T05:50:40.662Z,101543.06
2023-05-05T05:53:07.205Z,101542.25
2023-05-05T05:55:33.718Z,101541.63
2023-05-05T05:58:00.162Z,101540.84
2023-05-05T06:00:27.054Z,101542.78
2023-05-05T06:02:53.583Z,101542.69
2023-05-05T06:05:19.988Z,101539.28
2023-05-05T06:07:46.360Z,101535.78
2023-05-05T06:10:26.680Z,101535.84
2023-05-05T06:12:59.677Z,101541.19
2023-05-05T06:15:26.225Z,101545.66
2023-05-05T06:17:52.824Z,101536.06
2023-05-05T06:20:19.392Z,101530.78
2023-05-05T06:22:46.037Z,101537.09
2023-05-05T06:25:12.599Z,101548.25
2023-05-05T06:27:38.961Z,101548.66
2023-05-05T06:30:07.323Z,101554.25
2023-05-05T06:32:33.931Z,101555.31
2023-05-05T06:35:00.944Z,101547.38
2023-05-05T06:37:30.253Z,101551.88
2023-05-05T06:39:56.839Z,101560.19
2023-05-05T06:42:23.341Z,101564.06
2023-05-05T06:44:49.942Z,101566.22
2023-05-05T06:47:16.459Z,101568.13
2023-05-05T06:49:42.987Z,101564.28
2023-05-05T06:52:09.457Z,101565.59
2023-05-05T06:54:35.961Z,101569.75
2023-05-05T06:57:02.335Z,101564.16
2023-05-05T06:59:28.935Z,101567.88
2023-05-05T07:01:56.525Z,101557.50
2023-05-05T07:04:23.472Z,101565.38
2023-05-05T07:06:50.007Z,101568.31
2023-05-05T07:09:19.923Z,101572.78
2023-05-05T07:11:46.835Z,101575.56
2023-05-05T07:14:15.830Z,101574.13
2023-05-05T07:16:42.252Z,101558.56
2023-05-05T07:19:08.878Z,101572.09
2023-05-05T07:21:35.818Z,101573.97
2023-05-05T07:24:03.319Z,101578.16
2023-05-05T07:26:29.916Z,101577.88
2023-05-05T07:28:57.453Z,101573.34
2023-05-05T07:31:24.116Z,101585.28
2023-05-05T07:33:50.624Z,101592.44
2023-05-05T07:36:18.239Z,101583.13
2023-05-05T07:38:44.720Z,101583.25
2023-05-05T07:41:13.900Z,101582.22
2023-05-05T07:43:44.265Z,101581.13
2023-05-05T07:46:11.085Z,101581.94
2023-05-05T07:48:39.044Z,101586.97
2023-05-05T07:51:05.476Z,101586.97
2023-05-05T07:53:32.022Z,101588.34
2023-05-05T07:55:58.817Z,101578.94
2023-05-05T07:58:25.353Z,101579.19
2023-05-05T08:00:51.758Z,101579.31
2023-05-05T08:03:20.380Z,101579.78
2023-05-05T08:05:50.623Z,101567.41
2023-05-05T08:08:18.157Z,101597.84
2023-05-05T08:10:44.604Z,101593.44
2023-05-05T08:13:11.075Z,101592.00
2023-05-05T08:15:37.547Z,101594.53
2023-05-05T08:18:04.004Z,101594.22
2023-05-05T08:20:30.620Z,101584.97
2023-05-05T08:22:57.088Z,101592.03
2023-05-05T08:25:24.176Z,101590.97
2023-05-05T08:27:50.607Z,101590.16
2023-05-05T08:30:20.782Z,101594.94
2023-05-05T08:32:47.344Z,101597.28
2023-05-05T08:35:14.118Z,101600.63
2023-05-05T08:37:40.647Z,101596.25
2023-05-05T08:40:07.639Z,101607.53
2023-05-05T08:42:38.660Z,101607.63
2023-05-05T08:45:07.385Z,101610.06
2023-05-05T08:47:35.876Z,101605.72
2023-05-05T08:50:02.477Z,101607.69
2023-05-05T08:52:36.368Z,101617.91
2023-05-05T08:55:24.495Z,101619.31
2023-05-05T08:57:54.507Z,101618.66
2023-05-05T09:00:21.582Z,101607.03
2023-05-05T09:02:48.956Z,101615.31
2023-05-05T09:05:16.226Z,101622.13
2023-05-05T09:07:44.106Z,101618.31
2023-05-05T09:10:14.521Z,101616.56
2023-05-05T09:12:41.921Z,101616.28
2023-05-05T09:15:13.820Z,101617.09
2023-05-05T09:17:46.979Z,101617.72
2023-05-05T09:20:14.898Z,101610.13
2023-05-05T09:22:44.717Z,101607.47
2023-05-05T09:25:13.108Z,101617.66
2023-05-05T09:27:42.206Z,101621.41
2023-05-05T09:30:10.756Z,101620.09
2023-05-05T09:32:49.350Z,101616.44
2023-05-05T09:35:16.962Z,101613.53
2023-05-05T09:37:43.974Z,101617.50
2023-05-05T09:40:13.215Z,101604.59
2023-05-05T09:42:40.936Z,101622.91
2023-05-05T09:45:20.365Z,101616.63
2023-05-05T09:47:47.989Z,101625.66
2023-05-05T09:50:18.812Z,101629.28
2023-05-05T09:52:59.645Z,101651.09
2023-05-05T09:55:26.338Z,101662.19
2023-05-05T09:57:52.821Z,101690.88
2023-05-05T10:00:20.135Z,101686.63
2023-05-05T10:02:46.818Z,101679.84
2023-05-05T10:05:18.395Z,101667.16
2023-05-05T10:07:45.923Z,101662.97
2023-05-05T10:10:15.473Z,101636.59
2023-05-05T10:12:42.696Z,101628.78
2023-05-05T10:15:11.387Z,101618.16
2023-05-05T10:18:02.255Z,101633.28
2023-05-05T10:20:35.042Z,101634.25
2023-05-05T10:23:05.586Z,101645.00
2023-05-05T10:25:39.555Z,101635.09
2023-05-05T10:28:11.650Z,101636.84
2023-05-05T10:30:44.100Z,101638.03
2023-05-05T10:33:30.194Z,101645.19
2023-05-05T10:36:02.063Z,101646.09
2023-05-05T10:38:31.762Z,101645.22
2023-05-05T10:41:00.907Z,101643.44
2023-05-05T10:43:50.006Z,101650.53
2023-05-05T10:46:17.045Z,101652.44
2023-05-05T10:48:57.407Z,101655.97
2023-05-05T10:51:44.851Z,101659.53
2023-05-05T10:54:21.486Z,101648.34
2023-05-05T10:56:48.387Z,101675.06
2023-05-05T10:59:39.290Z,101664.75
2023-05-05T11:02:17.990Z,101664.16
2023-05-05T11:04:44.604Z,101656.28
2023-05-05T11:07:14.650Z,101653.88
2023-05-05T11:10:06.130Z,101648.69
2023-05-05T11:12:53.619Z,101652.28
2023-05-05T11:15:34.938Z,101647.06
2023-05-05T11:18:05.912Z,101640.91
2023-05-05T11:20:40.034Z,101648.97
2023-05-05T11:23:06.603Z,101649.78
2023-05-05T11:25:45.293Z,101660.41
2023-05-05T11:28:17.807Z,101654.25
2023-05-05T11:30:56.935Z,101659.66
2023-05-05T11:33:33.960Z,101667.69
2023-05-05T11:36:06.806Z,101660.63
2023-05-05T11:38:36.544Z,101671.38
2023-05-05T11:41:14.777Z,101679.56
2023-05-05T11:43:42.353Z,101679.75
2023-05-05T11:46:13.022Z,101680.75
2023-05-05T11:48:46.948Z,101689.72
2023-05-05T11:51:14.386Z,101672.25
2023-05-05T11:53:46.520Z,101689.13
2023-05-05T11:56:19.362Z,101682.97
2023-05-05T11:58:47.158Z,101673.25
2023-05-05T12:01:14.108Z,101677.75
2023-05-05T12:03:41.109Z,101678.59
2023-05-05T12:06:09.363Z,101676.78
2023-05-05T12:08:42.498Z,101682.16
2023-05-05T12:11:11.040Z,101679.50
2023-05-05T12:13:37.586Z,101679.50
2023-05-05T12:16:15.263Z,101683.03
2023-05-05T12:18:42.623Z,101663.63
2023-05-05T12:21:19.696Z,101675.91
2023-05-05T12:23:49.627Z,101656.41
2023-05-05T12:26:30.364Z,101660.03
2023-05-05T12:29:00.396Z,101653.03
2023-05-05T12:31:44.585Z,101644.19
2023-05-05T12:34:11.994Z,101630.00
2023-05-05T12:36:39.609Z,101630.13
2023-05-05T12:39:06.348Z,101630.19
2023-05-05T12:41:35.930Z,101624.94
2023-05-05T12:44:05.522Z,101625.97
2023-05-05T12:46:45.328Z,101624.16
2023-05-05T12:49:12.354Z,101623.19
2023-05-05T12:51:39.544Z,101644.41
2023-05-05T12:54:08.432Z,101631.91
2023-05-05T12:56:40.652Z,101640.78
2023-05-05T12:59:29.995Z,101635.44
2023-05-05T13:01:59.834Z,101647.84
2023-05-05T13:04:27.892Z,101651.47
2023-05-05T13:07:14.821Z,101664.88
2023-05-05T13:09:41.503Z,101660.47
2023-05-05T13:12:11.561Z,101661.25
2023-05-05T13:14:38.789Z,101661.22
2023-05-05T13:17:05.127Z,101658.56
2023-05-05T13:19:31.703Z,101662.09
2023-05-05T13:21:58.924Z,101663.84
2023-05-05T13:24:34.918Z,101669.13
2023-05-05T13:27:11.839Z,101666.50
2023-05-05T13:29:38.367Z,101671.00
2023-05-05T13:32:04.989Z,101678.06
2023-05-05T13:34:31.417Z,101667.41
2023-05-05T13:36:57.820Z,101678.97
2023-05-05T13:39:25.409Z,101690.47
2023-05-05T13:41:51.972Z,101686.16
2023-05-05T13:44:18.472Z,101680.03
2023-05-05T13:46:45.129Z,101687.22
2023-05-05T13:49:11.742Z,101686.38
2023-05-05T13:51:38.943Z,101679.34
2023-05-05T13:54:06.555Z,101671.41
2023-05-05T13:56:35.121Z,101676.78
2023-05-05T13:59:02.464Z,101673.34
2023-05-05T14:01:30.033Z,101671.66
2023-05-05T14:03:57.995Z,101655.75
2023-05-05T14:06:24.898Z,101658.47
2023-05-05T14:08:52.866Z,101654.03
2023-05-05T14:11:20.537Z,101647.84
2023-05-05T14:13:47.606Z,101641.63
2023-05-05T14:16:15.581Z,101638.00
2023-05-05T14:18:42.482Z,101623.03
2023-05-05T14:21:08.971Z,101623.91
2023-05-05T14:23:35.531Z,101618.63
2023-05-05T14:26:02.085Z,101607.09
2023-05-05T14:28:28.610Z,101597.44
2023-05-05T14:30:55.095Z,101604.53
2023-05-05T14:33:22.257Z,101621.38
2023-05-05T14:35:48.990Z,101612.53
2023-05-05T14:38:15.596Z,101610.69
2023-05-05T14:40:45.027Z,101612.41
2023-05-05T14:43:11.443Z,101617.63
2023-05-05T14:45:37.986Z,101635.38
2023-05-05T14:48:04.485Z,101624.69
2023-05-05T14:50:30.962Z,101625.47
2023-05-05T14:52:57.401Z,101623.63
2023-05-05T14:55:25.009Z,101624.47
2023-05-05T14:57:51.909Z,101627.00
2023-05-05T15:00:18.668Z,101621.63
2023-05-05T15:02:45.158Z,101632.09
2023-05-05T15:05:11.792Z,101632.00
2023-05-05T15:07:38.392Z,101627.53
2023-05-05T15:10:05.344Z,101634.63
2023-05-05T15:12:35.196Z,101627.50
2023-05-05T15:15:02.718Z,101632.78
2023-05-05T15:17:30.775Z,101627.44
2023-05-05T15:19:57.495Z,101631.88
2023-05-05T15:22:24.171Z,101623.03
2023-05-05T15:24:50.873Z,101631.78
2023-05-05T15:27:18.279Z,101630.03
2023-05-05T15:29:45.002Z,101624.72
2023-05-05T15:32:11.568Z,101621.16
2023-05-05T15:34:38.131Z,101618.44
2023-05-05T15:37:04.720Z,101618.44
2023-05-05T15:39:33.776Z,101616.63
2023-05-05T15:42:03.615Z,101610.44
2023-05-05T15:44:30.487Z,101605.94
2023-05-05T15:46:57.170Z,101602.31
2023-05-05T15:49:23.664Z,101612.03
2023-05-05T15:51:50.260Z,101600.56
2023-05-05T15:54:17.115Z,101594.38
2023-05-05T15:56:43.564Z,101594.34
2023-05-05T15:59:12.654Z,101596.03
2023-05-05T16:01:39.178Z,101595.00
2023-05-05T16:04:05.669Z,101596.69
2023-05-05T16:06:32.285Z,101586.09
2023-05-05T16:08:58.783Z,101583.44
2023-05-05T16:11:26.321Z,101585.28
2023-05-05T16:13:53.135Z,101583.50
2023-05-05T16:16:19.635Z,101586.16
2023-05-05T16:18:46.327Z,101577.41
2023-05-05T16:21:12.777Z,101576.53
2023-05-05T16:23:39.287Z,101580.97
2023-05-05T16:26:05.858Z,101583.69
2023-05-05T16:28:34.124Z,101582.75
2023-05-05T16:31:02.224Z,101587.13
2023-05-05T16:33:29.220Z,101584.41
2023-05-05T16:35:58.506Z,101577.28
2023-05-05T16:38:24.946Z,101573.66
2023-05-05T16:40:51.580Z,101576.28
2023-05-05T16:43:20.661Z,101582.47
2023-05-05T16:45:47.211Z,101579.09
2023-05-05T16:48:14.661Z,101575.69
2023-05-05T16:50:41.447Z,101584.56
2023-05-05T16:53:08.933Z,101579.25
2023-05-05T16:55:35.632Z,101582.00
2023-05-05T16:58:02.090Z,101579.44
2023-05-05T17:00:29.813Z,101581.25
2023-05-05T17:02:56.783Z,101587.53
2023-05-05T17:05:23.371Z,101588.34
2023-05-05T17:07:49.932Z,101586.56
2023-05-05T17:10:16.595Z,101580.31
2023-05-05T17:12:43.026Z,101579.44
2023-05-05T17:15:09.994Z,101578.50
2023-05-05T17:17:36.689Z,101584.72
2023-05-05T17:20:04.780Z,101576.78
2023-05-05T17:22:31.983Z,101575.13
2023-05-05T17:24:58.456Z,101572.63
2023-05-05T17:27:24.920Z,101580.56
2023-05-05T17:29:51.828Z,101575.19
2023-05-05T17:32:18.217Z,101581.38
2023-05-05T17:34:44.592Z,101576.97
2023-05-05T17:37:10.990Z,101576.94
2023-05-05T17:39:37.414Z,101579.56
2023-05-05T17:42:03.990Z,101580.38
2023-05-05T17:44:31.519Z,101575.00
2023-05-05T17:46:58.351Z,101574.06
2023-05-05T17:49:25.354Z,101578.47
2023-05-05T17:51:52.032Z,101571.41
2023-05-05T17:54:21.178Z,101578.38
2023-05-05T17:56:47.591Z,101575.75
2023-05-05T17:59:13.973Z,101582.91
2023-05-05T18:01:45.071Z,101575.00
2023-05-05T18:04:11.569Z,101582.16
2023-05-05T18:06:38.214Z,101584.03
2023-05-05T18:09:04.776Z,101572.53
2023-05-05T18:11:31.279Z,101580.50
2023-05-05T18:13:57.935Z,101580.59
2023-05-05T18:16:24.405Z,101590.28
2023-05-05T18:18:53.803Z,101591.16
2023-05-05T18:21:20.338Z,101588.53
2023-05-05T18:23:46.722Z,101584.13
2023-05-05T18:26:13.185Z,101589.47
2023-05-05T18:28:40.575Z,101585.09
2023-05-05T18:31:07.328Z,101586.97
2023-05-05T18:33:33.771Z,101596.72
2023-05-05T18:36:01.142Z,101597.72
2023-05-05T18:38:27.666Z,101594.22
2023-05-05T18:40:54.144Z,101595.19
2023-05-05T18:43:20.806Z,101599.75
2023-05-05T18:45:47.252Z,101606.03
2023-05-05T18:48:16.780Z,101594.63
2023-05-05T18:50:43.364Z,101609.66
2023-05-05T18:53:10.779Z,101617.72
2023-05-05T18:55:37.308Z,101616.00
2023-05-05T18:58:03.666Z,101613.38
2023-05-05T19:00:30.138Z,101623.16
2023-05-05T19:02:56.899Z,101620.53
2023-05-05T19:05:23.530Z,101623.16
2023-05-05T19:07:49.957Z,101618.78
2023-05-05T19:10:16.392Z,101608.22
2023-05-05T19:12:42.852Z,101612.66
2023-05-05T19:15:13.810Z,101612.69
2023-05-05T19:17:40.278Z,101608.28
2023-05-05T19:20:07.561Z,101620.69
2023-05-05T19:22:34.070Z,101622.47
2023-05-05T19:25:02.678Z,101618.09
2023-05-05T19:27:29.333Z,101620.78
2023-05-05T19:29:55.896Z,101626.09
2023-05-05T19:32:22.480Z,101623.47
2023-05-05T19:34:49.109Z,101619.97
2023-05-05T19:37:15.682Z,101624.44
2023-05-05T19:39:44.333Z,101627.09
2023-05-05T19:42:11.159Z,101628.00
2023-05-05T19:44:37.566Z,101639.47
2023-05-05T19:47:04.484Z,101638.63
2023-05-05T19:49:30.870Z,101633.31
2023-05-05T19:51:58.751Z,101635.09
2023-05-05T19:54:25.654Z,101636.03
2023-05-05T19:56:52.208Z,101639.56
2023-05-05T19:59:18.577Z,101638.69
2023-05-05T20:01:45.182Z,101639.56
2023-05-05T20:04:11.764Z,101641.34
2023-05-05T20:06:38.277Z,101638.72
2023-05-05T20:09:04.839Z,101645.81
2023-05-05T20:11:31.487Z,101646.69
2023-05-05T20:14:01.424Z,101645.81
2023-05-05T20:16:27.859Z,101647.59
2023-05-05T20:18:54.578Z,101648.47
2023-05-05T20:21:21.237Z,101645.81
2023-05-05T20:23:47.858Z,101652.91
2023-05-05T20:26:14.521Z,101650.25
2023-05-05T20:28:44.820Z,101649.38
2023-05-05T20:31:12.080Z,101656.44
2023-05-05T20:33:38.513Z,101652.03
2023-05-05T20:36:05.369Z,101658.19
2023-05-05T20:38:31.765Z,101650.28
2023-05-05T20:40:58.147Z,101650.28
2023-05-05T20:43:25.480Z,101650.25
2023-05-05T20:45:52.069Z,101659.09
2023-05-05T20:48:18.860Z,101653.78
2023-05-05T20:50:45.688Z,101659.97
2023-05-05T20:53:16.031Z,101653.78
2023-05-05T20:55:42.619Z,101660.00
2023-05-05T20:58:11.622Z,101655.56
2023-05-05T21:00:38.212Z,101651.13
2023-05-05T21:03:04.919Z,101646.72
2023-05-05T21:05:31.691Z,101653.81
2023-05-05T21:08:01.175Z,101654.69
2023-05-05T21:10:29.099Z,101651.09
2023-05-05T21:12:55.821Z,101643.16
2023-05-05T21:15:22.655Z,101655.53
2023-05-05T21:17:49.086Z,101661.72
2023-05-05T21:20:16.585Z,101654.66
2023-05-05T21:22:43.126Z,101651.09
2023-05-05T21:25:20.791Z,101657.25
2023-05-05T21:27:48.341Z,101629.03
2023-05-05T21:30:15.399Z,101649.31
2023-05-05T21:32:42.587Z,101653.72
2023-05-05T21:35:09.335Z,101649.31
2023-05-05T21:37:39.354Z,101638.72
2023-05-05T21:40:09.504Z,101627.25
2023-05-05T21:42:36.200Z,101643.16
2023-05-05T21:45:02.712Z,101642.25
2023-05-05T21:47:29.191Z,101646.66
2023-05-05T21:49:55.605Z,101648.41
2023-05-05T21:52:21.943Z,101638.69
2023-05-05T21:54:48.387Z,101646.63
2023-05-05T21:57:14.882Z,101638.69
2023-05-05T21:59:41.355Z,101651.03
2023-05-05T22:02:07.785Z,101646.63
2023-05-05T22:04:34.183Z,101640.47
2023-05-05T22:07:00.841Z,101645.75
2023-05-05T22:09:29.011Z,101650.16
2023-05-05T22:11:55.492Z,101646.59
2023-05-05T22:14:21.989Z,101648.38
2023-05-05T22:16:48.499Z,101648.34
2023-05-05T22:19:14.916Z,101649.22
2023-05-05T22:21:41.372Z,101653.66
2023-05-05T22:24:07.889Z,101647.47
2023-05-05T22:26:34.275Z,101642.16
2023-05-05T22:29:03.057Z,101643.94
2023-05-05T22:31:30.607Z,101643.94
2023-05-05T22:33:57.352Z,101643.94
2023-05-05T22:36:27.521Z,101640.41
2023-05-05T22:38:54.176Z,101636.00
2023-05-05T22:41:21.043Z,101629.81
2023-05-05T22:43:49.073Z,101636.00
2023-05-05T22:46:17.449Z,101633.34
2023-05-05T22:48:43.946Z,101635.13
2023-05-05T22:51:11.276Z,101635.09
2023-05-05T22:53:38.593Z,101632.44
2023-05-05T22:56:05.410Z,101630.69
2023-05-05T22:58:31.853Z,101625.38
2023-05-05T23:00:58.313Z,101621.84
2023-05-05T23:03:24.800Z,101627.13
2023-05-05T23:05:51.188Z,101621.88
2023-05-05T23:08:17.598Z,101626.28
2023-05-05T23:10:44.155Z,101621.88
2023-05-05T23:13:10.786Z,101624.50
2023-05-05T23:15:43.540Z,101620.97
2023-05-05T23:18:09.922Z,101624.50
2023-05-05T23:20:36.449Z,101628.03
2023-05-05T23:23:04.582Z,101628.03
2023-05-05T23:25:31.033Z,101638.59
2023-05-05T23:27:57.421Z,101628.91
2023-05-05T23:30:23.856Z,101629.78
2023-05-05T23:32:50.575Z,101628.91
2023-05-05T23:35:20.204Z,101621.84
2023-05-05T23:37:46.736Z,101630.66
2023-05-05T23:40:16.117Z,101628.00
2023-05-05T23:42:42.494Z,101633.31
2023-05-05T23:45:09.700Z,101626.22
2023-05-05T23:47:36.491Z,101625.38
2023-05-05T23:50:03.573Z,101633.25
2023-05-05T23:52:33.073Z,101620.06
2023-05-05T23:54:59.560Z,101619.13
2023-05-05T23:57:28.702Z,101615.59
